createdAt,value
2019-03-05T00:01:37.284Z,0.30
2019-03-05T00:04:17.276Z,0.30
2019-03-05T00:07:03.486Z,0.30
2019-03-05T00:09:43.115Z,0.30
2019-03-05T00:12:29.374Z,0.30
2019-03-05T00:15:11.559Z,0.30
2019-03-05T00:17:57.783Z,0.30
2019-03-05T00:20:37.362Z,0.10
2019-03-05T00:23:43.409Z,0.20
2019-03-05T00:26:25.555Z,0.10
2019-03-05T00:29:31.722Z,0.10
2019-03-05T00:32:13.345Z,0.00
2019-03-05T00:35:21.991Z,0.00
2019-03-05T00:38:22.062Z,-0.10
2019-03-05T00:41:28.187Z,-0.10
2019-03-05T00:44:28.806Z,-0.10
2019-03-05T00:47:34.907Z,-0.10
2019-03-05T00:50:18.133Z,-0.20
2019-03-05T00:53:26.055Z,-0.10
2019-03-05T00:56:08.176Z,-0.20
2019-03-05T00:58:56.222Z,-0.30
2019-03-05T01:05:18.173Z,-0.30
2019-03-05T01:07:58.027Z,-0.20
2019-03-05T01:10:39.366Z,-0.30
2019-03-05T01:13:26.130Z,-0.20
2019-03-05T01:19:08.813Z,-0.20
2019-03-05T01:21:56.070Z,-0.10
2019-03-05T01:24:36.048Z,-0.20
2019-03-05T01:27:22.509Z,-0.20
2019-03-05T01:30:30.419Z,-0.20
2019-03-05T01:33:15.102Z,-0.20
2019-03-05T01:36:21.526Z,-0.20
2019-03-05T01:39:06.424Z,-0.20
2019-03-05T01:41:54.123Z,-0.20
2019-03-05T01:44:34.838Z,-0.20
2019-03-05T01:47:21.248Z,-0.20
2019-03-05T01:49:48.199Z,-0.20
2019-03-05T01:52:34.480Z,-0.20
2019-03-05T01:55:15.246Z,-0.20
2019-03-05T01:57:41.927Z,-0.20
2019-03-05T02:03:18.003Z,-0.10
2019-03-05T02:06:04.459Z,0.00
2019-03-05T02:08:44.316Z,-0.10
2019-03-05T02:11:30.745Z,-0.10
2019-03-05T02:14:11.296Z,-0.20
2019-03-05T02:16:58.048Z,-0.20
2019-03-05T02:19:39.415Z,-0.20
2019-03-05T02:22:45.555Z,-0.10
2019-03-05T02:25:18.754Z,-0.10
2019-03-05T02:28:24.981Z,-0.10
2019-03-05T02:31:26.935Z,-0.10
2019-03-05T02:34:08.581Z,-0.10
2019-03-05T02:37:15.216Z,-0.10
2019-03-05T02:40:21.215Z,-0.10
2019-03-05T02:43:22.452Z,-0.10
2019-03-05T02:46:28.463Z,-0.10
2019-03-05T02:49:13.778Z,-0.10
2019-03-05T02:52:21.704Z,-0.20
2019-03-05T02:55:47.674Z,-0.20
2019-03-05T02:58:29.602Z,-0.20
2019-03-05T03:04:55.663Z,-0.20
2019-03-05T03:07:45.044Z,-0.20
2019-03-05T03:13:53.207Z,-0.30
2019-03-05T03:19:45.503Z,-0.30
2019-03-05T03:22:25.421Z,-0.30
2019-03-05T03:25:12.766Z,-0.40
2019-03-05T03:27:39.411Z,-0.30
2019-03-05T03:30:30.213Z,-0.40
2019-03-05T03:33:16.487Z,-0.40
2019-03-05T03:35:53.778Z,-0.50
2019-03-05T03:38:21.612Z,-0.40
2019-03-05T03:40:48.440Z,-0.40
2019-03-05T03:43:35.245Z,-0.40
2019-03-05T03:46:15.720Z,-0.50
2019-03-05T03:48:42.349Z,-0.50
2019-03-05T03:51:28.853Z,-0.50
2019-03-05T03:54:15.614Z,-0.40
2019-03-05T03:56:55.798Z,-0.50
2019-03-05T04:00:12.418Z,-0.50
2019-03-05T04:02:56.877Z,-0.50
2019-03-05T04:08:33.732Z,-0.40
2019-03-05T04:11:20.363Z,-0.40
2019-03-05T04:14:00.361Z,-0.40
2019-03-05T04:16:46.810Z,-0.50
2019-03-05T04:19:37.171Z,-0.40
2019-03-05T04:22:41.227Z,-0.50
2019-03-05T04:25:22.386Z,-0.50
2019-03-05T04:28:30.167Z,-0.70
2019-03-05T04:30:42.216Z,-0.80
2019-03-05T04:33:08.715Z,-0.70
2019-03-05T04:35:55.083Z,-0.70
2019-03-05T04:41:49.204Z,-0.60
2019-03-05T04:47:17.347Z,-0.80
2019-03-05T04:52:58.688Z,-0.60
2019-03-05T04:55:25.326Z,-0.80
2019-03-05T04:58:11.590Z,-0.70
2019-03-05T05:00:57.910Z,-0.80
2019-03-05T05:03:37.775Z,-0.80
2019-03-05T05:06:04.283Z,-0.90
2019-03-05T05:08:50.575Z,-1.00
2019-03-05T05:14:51.887Z,-1.00
2019-03-05T05:17:20.344Z,-0.90
2019-03-05T05:20:07.257Z,-0.80
2019-03-05T05:22:46.926Z,-0.80
2019-03-05T05:25:33.246Z,-0.80
2019-03-05T05:28:19.480Z,-0.80
2019-03-05T05:30:45.904Z,-0.90
2019-03-05T05:33:12.387Z,-1.00
2019-03-05T05:35:38.993Z,-0.90
2019-03-05T05:38:05.478Z,-1.00
2019-03-05T05:40:52.050Z,-1.00
2019-03-05T05:46:56.339Z,-1.00
2019-03-05T05:49:42.847Z,-1.00
2019-03-05T05:52:23.210Z,-1.10
2019-03-05T05:54:49.647Z,-1.10
2019-03-05T05:57:36.079Z,-1.00
2019-03-05T06:00:19.200Z,-1.00
2019-03-05T06:02:45.978Z,-1.10
2019-03-05T06:05:50.419Z,-1.10
2019-03-05T06:08:36.767Z,-1.10
2019-03-05T06:11:03.449Z,-1.20
2019-03-05T06:13:49.737Z,-1.10
2019-03-05T06:16:35.991Z,-1.20
2019-03-05T06:19:18.339Z,-1.30
2019-03-05T06:22:04.676Z,-1.30
2019-03-05T06:24:45.685Z,-1.30
2019-03-05T06:30:28.043Z,-1.20
2019-03-05T06:33:14.343Z,-1.30
2019-03-05T06:35:40.833Z,-1.30
2019-03-05T06:38:29.245Z,-1.30
2019-03-05T06:44:32.600Z,-1.20
2019-03-05T06:47:19.408Z,-1.20
2019-03-05T06:50:07.654Z,-1.30
2019-03-05T06:52:53.866Z,-1.30
2019-03-05T06:55:36.321Z,-1.40
2019-03-05T06:58:17.920Z,-1.30
2019-03-05T07:04:24.447Z,-1.30
2019-03-05T07:07:32.507Z,-1.30
2019-03-05T07:10:15.605Z,-1.40
2019-03-05T07:16:05.235Z,-1.40
2019-03-05T07:19:10.991Z,-1.40
2019-03-05T07:22:00.923Z,-1.30
2019-03-05T07:24:47.063Z,-1.50
2019-03-05T07:30:17.111Z,-1.50
2019-03-05T07:32:48.256Z,-1.70
2019-03-05T07:35:20.976Z,-1.50
2019-03-05T07:40:43.574Z,-1.70
2019-03-05T07:43:36.169Z,-1.60
2019-03-05T07:46:04.226Z,-1.60
2019-03-05T07:48:44.584Z,-1.60
2019-03-05T07:54:13.370Z,-1.50
2019-03-05T07:59:35.867Z,-1.50
2019-03-05T08:02:11.977Z,-1.40
2019-03-05T08:04:40.977Z,-1.30
2019-03-05T08:07:09.971Z,-1.40
2019-03-05T08:09:38.207Z,-1.40
2019-03-05T08:12:19.657Z,-1.40
2019-03-05T08:18:05.954Z,-1.40
2019-03-05T08:20:32.678Z,-1.60
2019-03-05T08:22:59.846Z,-1.50
2019-03-05T08:25:27.792Z,-1.40
2019-03-05T08:28:02.819Z,-1.40
2019-03-05T08:30:30.543Z,-1.50
2019-03-05T08:35:46.873Z,-1.50
2019-03-05T08:38:13.588Z,-1.50
2019-03-05T08:40:42.087Z,-1.40
2019-03-05T08:43:09.712Z,-1.40
2019-03-05T08:45:37.207Z,-1.50
2019-03-05T08:48:10.156Z,-1.30
2019-03-05T08:50:37.762Z,-1.30
2019-03-05T08:53:04.869Z,-1.30
2019-03-05T08:55:31.973Z,-1.40
2019-03-05T08:57:59.546Z,-1.30
2019-03-05T09:00:28.695Z,-1.40
2019-03-05T09:02:57.531Z,-1.40
2019-03-05T09:05:24.557Z,-1.60
2019-03-05T09:07:51.668Z,-1.50
2019-03-05T09:10:26.471Z,-1.40
2019-03-05T09:12:53.439Z,-1.30
2019-03-05T09:15:20.582Z,-1.30
2019-03-05T09:17:50.526Z,-1.60
2019-03-05T09:20:18.647Z,-1.70
2019-03-05T09:22:46.390Z,-1.70
2019-03-05T09:25:16.816Z,-1.90
2019-03-05T09:27:46.654Z,-1.60
2019-03-05T09:30:19.094Z,-1.40
2019-03-05T09:32:50.114Z,-1.40
2019-03-05T09:35:16.890Z,-1.50
2019-03-05T09:37:45.478Z,-1.50
2019-03-05T09:40:15.805Z,-1.50
2019-03-05T09:42:49.131Z,-1.60
2019-03-05T09:45:36.643Z,-1.40
2019-03-05T09:48:06.380Z,-1.20
2019-03-05T09:50:33.482Z,-1.40
2019-03-05T09:53:02.023Z,-1.40
2019-03-05T09:55:38.502Z,-1.10
2019-03-05T09:58:08.355Z,-1.20
2019-03-05T10:00:34.986Z,-1.80
2019-03-05T10:03:02.348Z,-1.50
2019-03-05T10:05:29.184Z,-1.30
2019-03-05T10:07:56.409Z,-1.20
2019-03-05T10:10:27.778Z,-1.10
2019-03-05T10:12:59.172Z,-1.10
2019-03-05T10:15:26.397Z,-1.10
2019-03-05T10:17:55.113Z,-0.90
2019-03-05T10:20:31.661Z,-0.80
2019-03-05T10:22:59.807Z,-0.80
2019-03-05T10:25:27.211Z,-0.80
2019-03-05T10:27:56.576Z,-0.90
2019-03-05T10:30:39.563Z,-1.00
2019-03-05T10:33:15.412Z,-1.30
2019-03-05T10:35:45.635Z,-1.30
2019-03-05T10:38:28.058Z,-1.40
2019-03-05T10:41:03.392Z,-1.10
2019-03-05T10:46:30.233Z,-1.20
2019-03-05T10:49:00.694Z,-1.20
2019-03-05T10:51:29.075Z,-1.20
2019-03-05T10:53:56.411Z,-1.10
2019-03-05T10:56:32.452Z,-1.10
2019-03-05T10:59:12.228Z,-0.90
2019-03-05T11:01:40.917Z,-1.00
2019-03-05T11:04:08.875Z,-1.00
2019-03-05T11:06:36.533Z,-1.10
2019-03-05T11:09:18.842Z,-1.00
2019-03-05T11:11:46.065Z,-1.10
2019-03-05T11:17:02.113Z,-1.40
2019-03-05T11:19:43.777Z,-1.50
2019-03-05T11:22:15.113Z,-1.50
2019-03-05T11:24:50.954Z,-1.40
2019-03-05T11:27:21.364Z,-1.40
2019-03-05T11:35:34.156Z,-1.30
2019-03-05T11:38:01.606Z,-1.30
2019-03-05T11:40:32.670Z,-1.30
2019-03-05T11:43:19.977Z,-1.10
2019-03-05T11:46:01.639Z,-1.30
2019-03-05T11:48:51.653Z,-1.30
2019-03-05T11:54:09.763Z,-1.00
2019-03-05T11:56:40.572Z,-1.10
2019-03-05T11:59:09.017Z,-1.30
2019-03-05T12:01:40.389Z,-1.20
2019-03-05T12:04:09.228Z,-1.30
2019-03-05T12:06:36.670Z,-1.30
2019-03-05T12:09:07.934Z,-1.40
2019-03-05T12:14:28.834Z,-1.30
2019-03-05T12:17:01.816Z,-0.90
2019-03-05T12:19:34.307Z,-0.70
2019-03-05T12:22:01.407Z,-1.20
2019-03-05T12:24:28.748Z,-1.30
2019-03-05T12:26:55.468Z,-1.40
2019-03-05T12:29:22.268Z,-1.20
2019-03-05T12:31:50.677Z,-1.10
2019-03-05T12:34:17.497Z,-0.80
2019-03-05T12:36:45.170Z,-0.70
2019-03-05T12:39:20.023Z,-0.70
2019-03-05T12:41:46.808Z,-0.80
2019-03-05T12:44:13.648Z,-1.00
2019-03-05T12:46:40.366Z,-1.00
2019-03-05T12:49:07.570Z,-1.20
2019-03-05T12:51:36.181Z,-1.10
2019-03-05T12:56:57.749Z,-1.20
2019-03-05T12:59:27.003Z,-1.10
2019-03-05T13:01:55.990Z,-0.80
2019-03-05T13:04:22.691Z,-0.30
2019-03-05T13:06:52.463Z,-0.40
2019-03-05T13:09:20.275Z,-0.30
2019-03-05T13:11:49.968Z,-0.30
2019-03-05T13:14:16.887Z,-0.70
2019-03-05T13:16:44.613Z,-0.80
2019-03-05T13:22:04.924Z,-0.30
2019-03-05T13:24:40.769Z,-0.10
2019-03-05T13:27:10.167Z,-0.20
2019-03-05T13:29:38.212Z,-0.50
2019-03-05T13:32:06.271Z,-0.90
2019-03-05T13:34:33.560Z,-1.10
2019-03-05T13:37:00.981Z,-1.60
2019-03-05T13:39:30.512Z,-1.50
2019-03-05T13:41:57.334Z,-1.70
2019-03-05T13:44:34.202Z,-1.80
2019-03-05T13:47:04.705Z,-1.60
2019-03-05T13:53:00.756Z,-2.00
2019-03-05T13:55:43.485Z,-1.90
2019-03-05T13:58:26.587Z,-2.00
2019-03-05T14:00:53.800Z,-2.00
2019-03-05T14:03:43.821Z,-1.90
2019-03-05T14:06:48.081Z,-1.90
2019-03-05T14:09:26.241Z,-2.00
2019-03-05T14:11:55.517Z,-2.20
2019-03-05T14:14:25.059Z,-2.10
2019-03-05T14:17:02.474Z,-2.10
2019-03-05T14:36:10.793Z,-2.30
2019-03-05T14:38:39.889Z,-1.90
2019-03-05T14:41:09.906Z,-1.80
2019-03-05T14:54:55.838Z,-2.20
2019-03-05T14:57:30.378Z,-2.30
2019-03-05T14:59:58.486Z,-2.60
2019-03-05T15:02:28.699Z,-2.40
2019-03-05T15:04:57.655Z,-2.40
2019-03-05T15:07:25.463Z,-2.30
2019-03-05T15:09:53.561Z,-2.40
2019-03-05T15:12:20.336Z,-2.40
2019-03-05T15:14:47.510Z,-2.40
2019-03-05T15:17:15.158Z,-2.30
2019-03-05T15:20:04.034Z,-2.30
2019-03-05T15:22:30.835Z,-2.20
2019-03-05T15:25:04.529Z,-2.10
2019-03-05T15:27:33.616Z,-2.10
2019-03-05T15:30:00.461Z,-2.10
2019-03-05T15:32:33.819Z,-2.30
2019-03-05T15:35:01.160Z,-2.30
2019-03-05T15:37:30.381Z,-2.30
2019-03-05T15:39:58.967Z,-2.20
2019-03-05T15:42:33.904Z,-2.30
2019-03-05T15:45:11.738Z,-2.40
2019-03-05T15:47:42.555Z,-2.30
2019-03-05T15:53:07.556Z,-2.70
2019-03-05T15:55:36.223Z,-2.70
2019-03-05T15:58:19.885Z,-2.90
2019-03-05T16:00:53.010Z,-2.80
2019-03-05T16:03:29.994Z,-2.90
2019-03-05T16:06:15.432Z,-3.00
2019-03-05T16:17:32.303Z,-3.20
2019-03-05T16:22:59.126Z,-3.00
2019-03-05T16:31:40.168Z,-3.20
2019-03-05T16:37:16.821Z,-3.40
2019-03-05T16:43:20.594Z,-3.40
2019-03-05T16:52:17.899Z,-3.30
2019-03-05T16:55:10.337Z,-3.50
2019-03-05T16:57:55.351Z,-3.50
2019-03-05T17:00:26.844Z,-3.50
2019-03-05T17:06:05.927Z,-3.70
2019-03-05T17:26:42.296Z,-3.70
2019-03-05T17:35:05.220Z,-3.70
2019-03-05T17:40:33.066Z,-4.00
2019-03-05T17:49:09.355Z,-4.00
2019-03-05T18:00:45.156Z,-4.00
2019-03-05T18:06:08.142Z,-4.10
2019-03-05T18:11:26.306Z,-4.20
2019-03-05T18:13:59.311Z,-4.30
2019-03-05T18:16:42.850Z,-4.30
2019-03-05T18:19:16.224Z,-4.40
2019-03-05T18:21:59.060Z,-4.40
2019-03-05T18:27:43.409Z,-4.30
2019-03-05T18:30:31.145Z,-4.40
2019-03-05T18:33:05.500Z,-4.40
2019-03-05T18:35:38.956Z,-4.30
2019-03-05T18:38:07.434Z,-4.30
2019-03-05T18:46:24.037Z,-4.20
2019-03-05T19:00:19.574Z,-4.50
2019-03-05T19:02:50.857Z,-4.40
2019-03-05T19:05:40.114Z,-4.50
2019-03-05T19:14:16.623Z,-4.70
2019-03-05T19:16:51.029Z,-4.70
2019-03-05T19:19:29.463Z,-4.70
2019-03-05T19:21:57.957Z,-4.60
2019-03-05T19:25:25.925Z,-4.60
2019-03-05T19:27:11.429Z,-4.60
2019-03-05T19:29:51.102Z,-4.70
2019-03-05T19:32:29.209Z,-4.70
2019-03-05T19:34:54.265Z,-4.70
2019-03-05T19:37:25.488Z,-4.60
2019-03-05T19:43:00.793Z,-4.70
2019-03-05T19:45:32.609Z,-4.70
2019-03-05T19:48:09.791Z,-4.70
2019-03-05T19:50:51.272Z,-4.60
2019-03-05T19:53:15.548Z,-4.70
2019-03-05T19:55:47.142Z,-4.80
2019-03-05T19:58:31.358Z,-4.70
2019-03-05T20:01:09.669Z,-4.80
2019-03-05T20:03:41.640Z,-4.80
2019-03-05T20:09:21.513Z,-4.80
2019-03-05T20:33:11.771Z,-4.90
2019-03-05T20:38:49.727Z,-5.00
2019-03-05T20:44:11.784Z,-5.10
2019-03-05T20:52:19.887Z,-5.00
2019-03-05T20:54:54.273Z,-5.00
2019-03-05T20:57:25.568Z,-5.00
2019-03-05T20:59:52.353Z,-5.10
2019-03-05T21:02:21.241Z,-5.00
2019-03-05T21:04:49.959Z,-5.10
2019-03-05T21:07:19.749Z,-5.10
2019-03-05T21:09:56.490Z,-5.10
2019-03-05T21:12:26.319Z,-5.20
2019-03-05T21:17:52.653Z,-5.30
2019-03-05T21:20:21.282Z,-5.20
2019-03-05T21:22:54.054Z,-5.20
2019-03-05T21:25:21.986Z,-5.20
2019-03-05T21:27:50.694Z,-5.20
2019-03-05T21:30:25.744Z,-5.20
2019-03-05T21:32:53.480Z,-5.20
2019-03-05T21:38:15.840Z,-5.30
2019-03-05T21:46:44.035Z,-5.40
2019-03-05T21:49:14.892Z,-5.50
2019-03-05T21:51:43.124Z,-5.40
2019-03-05T21:54:09.923Z,-5.40
2019-03-05T21:56:39.667Z,-5.50
2019-03-05T21:59:07.465Z,-5.60
2019-03-05T22:04:30.808Z,-5.50
2019-03-05T22:06:57.475Z,-5.50
2019-03-05T22:09:25.333Z,-5.60
2019-03-05T22:11:53.113Z,-5.60
2019-03-05T22:14:20.665Z,-5.70
2019-03-05T22:16:47.854Z,-5.70
2019-03-05T22:19:20.141Z,-5.60
2019-03-05T22:21:47.295Z,-5.60
2019-03-05T22:24:15.188Z,-5.60
2019-03-05T22:26:42.589Z,-5.70
2019-03-05T22:29:09.513Z,-5.70
2019-03-05T22:31:37.450Z,-5.70
2019-03-05T22:34:04.222Z,-5.70
2019-03-05T22:36:32.880Z,-5.60
2019-03-05T22:38:59.499Z,-5.70
2019-03-05T22:41:26.173Z,-5.70
2019-03-05T22:43:53.135Z,-5.80
2019-03-05T22:46:19.788Z,-5.80
2019-03-05T22:48:47.321Z,-5.90
2019-03-05T22:51:13.958Z,-6.00
2019-03-05T22:53:40.950Z,-6.00
2019-03-05T22:56:07.666Z,-6.10
2019-03-05T22:58:34.373Z,-6.10
2019-03-05T23:01:05.999Z,-6.20
2019-03-05T23:03:32.854Z,-6.20
2019-03-05T23:06:03.514Z,-6.20
2019-03-05T23:08:30.156Z,-6.10
2019-03-05T23:10:56.983Z,-6.10
2019-03-05T23:13:23.845Z,-6.10
2019-03-05T23:15:50.798Z,-6.00
2019-03-05T23:18:21.026Z,-6.10
2019-03-05T23:20:50.510Z,-6.10
2019-03-05T23:23:19.080Z,-6.10
2019-03-05T23:25:45.807Z,-6.10
2019-03-05T23:28:12.336Z,-6.20
2019-03-05T23:30:39.393Z,-6.20
2019-03-05T23:33:06.455Z,-6.20
2019-03-05T23:35:33.089Z,-6.30
2019-03-05T23:37:59.957Z,-6.40
2019-03-05T23:40:26.633Z,-6.40
2019-03-05T23:42:53.319Z,-6.50
2019-03-05T23:45:20.063Z,-6.50
2019-03-05T23:47:46.732Z,-6.60
2019-03-05T23:50:15.297Z,-6.60
2019-03-05T23:52:44.237Z,-6.50
2019-03-05T23:55:12.608Z,-6.50
2019-03-05T23:57:39.251Z,-6.40
